createdAt,value
2019-04-04T00:00:26.121Z,6.40
2019-04-04T00:03:29.580Z,6.40
2019-04-04T00:06:33.033Z,6.50
2019-04-04T00:09:36.470Z,6.40
2019-04-04T00:12:39.927Z,6.40
2019-04-04T00:15:45.385Z,6.40
2019-04-04T00:18:48.525Z,6.30
2019-04-04T00:21:51.979Z,6.30
2019-04-04T00:24:55.400Z,6.20
2019-04-04T00:27:58.851Z,6.30
2019-04-04T00:31:02.300Z,6.30
2019-04-04T00:34:05.767Z,6.30
2019-04-04T00:37:09.269Z,6.20
2019-04-04T00:40:13.392Z,6.20
2019-04-04T00:43:16.904Z,6.20
2019-04-04T00:46:20.336Z,6.20
2019-04-04T00:49:23.793Z,6.20
2019-04-04T00:52:27.216Z,6.30
2019-04-04T00:55:30.666Z,6.30
2019-04-04T00:58:34.127Z,6.30
2019-04-04T01:01:37.561Z,6.40
2019-04-04T01:04:41.017Z,6.40
2019-04-04T01:07:44.448Z,6.40
2019-04-04T01:10:49.502Z,6.20
2019-04-04T01:13:53.093Z,6.20
2019-04-04T01:16:56.533Z,6.10
2019-04-04T01:19:59.981Z,6.10
2019-04-04T01:23:03.413Z,6.10
2019-04-04T01:26:06.867Z,6.20
2019-04-04T01:29:11.095Z,6.20
2019-04-04T01:32:15.149Z,6.20
2019-04-04T01:35:22.530Z,6.30
2019-04-04T01:38:25.135Z,6.20
2019-04-04T01:41:28.610Z,6.20
2019-04-04T01:44:32.024Z,6.30
2019-04-04T01:47:35.486Z,6.40
2019-04-04T01:50:38.956Z,6.40
2019-04-04T01:53:42.414Z,6.40
2019-04-04T01:56:45.853Z,6.40
2019-04-04T01:59:49.313Z,6.30
2019-04-04T02:02:52.790Z,6.40
2019-04-04T02:05:58.135Z,6.30
2019-04-04T02:09:02.818Z,6.30
2019-04-04T02:12:07.994Z,6.40
2019-04-04T02:15:13.805Z,6.40
2019-04-04T02:18:17.078Z,6.50
2019-04-04T02:21:20.537Z,6.50
2019-04-04T02:24:24.065Z,6.40
2019-04-04T02:27:27.527Z,6.50
2019-04-04T02:30:30.991Z,6.50
2019-04-04T02:33:34.515Z,6.60
2019-04-04T02:36:37.942Z,6.60
2019-04-04T02:39:41.419Z,6.60
2019-04-04T02:42:44.943Z,6.60
2019-04-04T02:45:48.380Z,6.70
2019-04-04T02:48:53.584Z,6.70
2019-04-04T02:51:57.085Z,6.70
2019-04-04T02:55:00.570Z,6.70
2019-04-04T02:58:04.226Z,6.60
2019-04-04T03:01:07.700Z,6.60
2019-04-04T03:04:13.666Z,6.50
2019-04-04T03:07:16.344Z,6.40
2019-04-04T03:10:19.771Z,6.30
2019-04-04T03:13:23.234Z,6.20
2019-04-04T03:16:26.666Z,6.20
2019-04-04T03:19:30.139Z,6.10
2019-04-04T03:22:33.578Z,6.20
2019-04-04T03:25:37.051Z,6.20
2019-04-04T03:28:40.562Z,6.20
2019-04-04T03:31:44.029Z,6.30
2019-04-04T03:34:49.834Z,6.30
2019-04-04T03:37:52.651Z,6.40
2019-04-04T03:40:58.090Z,6.40
2019-04-04T03:44:01.387Z,6.40
2019-04-04T03:47:04.854Z,6.40
2019-04-04T03:50:08.316Z,6.40
2019-04-04T03:53:16.315Z,6.40
2019-04-04T03:56:16.942Z,6.50
2019-04-04T03:59:20.407Z,6.60
2019-04-04T04:02:23.885Z,6.50
2019-04-04T04:05:34.292Z,6.50
2019-04-04T04:08:36.206Z,6.60
2019-04-04T04:11:39.663Z,6.50
2019-04-04T04:14:43.205Z,6.50
2019-04-04T04:17:46.670Z,6.50
2019-04-04T04:20:50.206Z,6.50
2019-04-04T04:23:56.772Z,6.50
2019-04-04T04:26:58.847Z,6.50
2019-04-04T04:30:05.933Z,6.50
2019-04-04T04:33:07.491Z,6.50
2019-04-04T04:36:15.360Z,6.50
2019-04-04T04:39:16.106Z,6.50
2019-04-04T04:42:21.267Z,6.50
2019-04-04T04:45:24.767Z,6.50
2019-04-04T04:48:30.926Z,6.50
2019-04-04T04:51:33.477Z,6.50
2019-04-04T04:54:36.936Z,6.50
2019-04-04T04:57:40.554Z,6.50
2019-04-04T05:00:46.950Z,6.50
2019-04-04T05:03:50.694Z,6.50
2019-04-04T05:06:54.597Z,6.40
2019-04-04T05:09:58.037Z,6.40
2019-04-04T05:13:01.520Z,6.40
2019-04-04T05:16:08.570Z,6.40
2019-04-04T05:19:10.418Z,6.40
2019-04-04T05:22:13.867Z,6.40
2019-04-04T05:25:17.325Z,6.40
2019-04-04T05:28:20.783Z,6.40
2019-04-04T05:31:24.245Z,6.30
2019-04-04T05:34:28.277Z,6.20
2019-04-04T05:37:32.894Z,6.20
2019-04-04T05:40:36.330Z,6.10
2019-04-04T05:43:39.838Z,6.10
2019-04-04T05:46:43.299Z,6.20
2019-04-04T05:49:46.773Z,6.20
2019-04-04T05:52:50.277Z,6.20
2019-04-04T05:55:53.737Z,6.30
2019-04-04T05:58:57.206Z,6.30
2019-04-04T06:02:00.666Z,6.30
2019-04-04T06:05:05.965Z,6.30
2019-04-04T06:08:09.462Z,6.40
2019-04-04T06:11:12.941Z,6.40
2019-04-04T06:14:16.377Z,6.40
2019-04-04T06:17:19.845Z,6.40
2019-04-04T06:20:23.290Z,6.40
2019-04-04T06:23:26.754Z,6.60
2019-04-04T06:26:30.270Z,6.70
2019-04-04T06:29:33.729Z,6.80
2019-04-04T06:32:38.874Z,6.90
2019-04-04T06:35:42.366Z,7.00
2019-04-04T06:38:45.835Z,7.10
2019-04-04T06:41:49.273Z,7.00
2019-04-04T06:44:54.210Z,7.00
2019-04-04T06:47:58.276Z,7.00
2019-04-04T06:51:02.022Z,6.90
2019-04-04T06:54:05.542Z,6.90
2019-04-04T06:57:08.993Z,6.90
2019-04-04T07:00:15.538Z,7.00
2019-04-04T07:03:17.961Z,7.00
2019-04-04T07:06:21.479Z,7.20
2019-04-04T07:09:24.958Z,7.20
2019-04-04T07:12:28.751Z,7.20
2019-04-04T07:15:32.320Z,7.10
2019-04-04T07:18:35.789Z,7.30
2019-04-04T07:21:39.225Z,7.40
2019-04-04T07:24:42.693Z,7.30
2019-04-04T07:27:47.411Z,7.40
2019-04-04T07:30:54.370Z,7.60
2019-04-04T07:33:56.501Z,7.60
2019-04-04T07:36:59.975Z,7.60
2019-04-04T07:40:04.612Z,7.70
2019-04-04T07:43:08.690Z,7.60
2019-04-04T07:46:16.670Z,7.40
2019-04-04T07:49:17.638Z,7.40
2019-04-04T07:52:21.145Z,7.40
2019-04-04T07:55:24.617Z,7.30
2019-04-04T07:58:28.075Z,7.30
2019-04-04T08:01:31.525Z,7.30
2019-04-04T08:04:35.048Z,7.30
2019-04-04T08:07:38.517Z,7.30
2019-04-04T08:10:42.013Z,7.40
2019-04-04T08:13:45.452Z,7.40
2019-04-04T08:16:48.917Z,7.50
2019-04-04T08:19:59.736Z,7.50
2019-04-04T08:22:57.541Z,7.50
2019-04-04T08:26:00.991Z,7.50
2019-04-04T08:29:04.719Z,7.60
2019-04-04T08:32:08.155Z,7.60
2019-04-04T08:35:11.801Z,7.50
2019-04-04T08:38:15.240Z,7.60
2019-04-04T08:41:18.703Z,7.50
2019-04-04T08:44:22.149Z,7.50
2019-04-04T08:47:25.618Z,7.50
2019-04-04T08:50:29.357Z,7.50
2019-04-04T08:53:39.875Z,7.60
2019-04-04T08:56:37.998Z,7.50
2019-04-04T08:59:41.529Z,7.50
2019-04-04T09:02:44.969Z,7.40
2019-04-04T09:05:48.447Z,7.40
2019-04-04T09:08:51.885Z,7.60
2019-04-04T09:11:55.368Z,7.70
2019-04-04T09:14:58.805Z,7.80
2019-04-04T09:18:02.350Z,7.80
2019-04-04T09:21:05.802Z,7.50
2019-04-04T09:24:09.296Z,7.40
2019-04-04T09:27:12.766Z,7.50
2019-04-04T09:30:17.986Z,7.70
2019-04-04T09:33:21.430Z,7.70
2019-04-04T09:36:24.893Z,7.80
2019-04-04T09:39:28.365Z,8.00
2019-04-04T09:42:31.805Z,8.10
2019-04-04T09:45:35.278Z,8.10
2019-04-04T09:48:38.727Z,8.10
2019-04-04T09:51:42.196Z,8.00
2019-04-04T09:54:45.637Z,8.00
2019-04-04T09:57:49.110Z,8.00
2019-04-04T10:00:52.551Z,8.00
2019-04-04T10:03:56.030Z,7.90
2019-04-04T10:06:59.473Z,8.00
2019-04-04T10:10:04.298Z,7.90
2019-04-04T10:13:07.733Z,7.90
2019-04-04T10:16:16.950Z,8.00
2019-04-04T10:19:20.421Z,8.00
2019-04-04T10:22:23.870Z,8.20
2019-04-04T10:25:27.341Z,8.30
2019-04-04T10:28:30.787Z,8.50
2019-04-04T10:31:34.260Z,8.70
2019-04-04T10:34:37.702Z,8.80
2019-04-04T10:37:41.182Z,9.00
2019-04-04T10:40:44.621Z,9.30
2019-04-04T10:43:48.094Z,9.40
2019-04-04T10:46:51.532Z,9.50
2019-04-04T10:49:54.990Z,9.60
2019-04-04T10:52:58.449Z,9.70
2019-04-04T10:56:01.899Z,9.70
2019-04-04T10:59:05.352Z,9.40
2019-04-04T11:02:08.797Z,9.40
2019-04-04T11:05:13.965Z,9.50
2019-04-04T11:08:52.046Z,9.80
2019-04-04T11:11:55.530Z,10.10
2019-04-04T11:14:58.972Z,10.30
2019-04-04T11:18:02.448Z,10.40
2019-04-04T11:21:05.889Z,10.40
2019-04-04T11:24:09.362Z,10.50
2019-04-04T11:27:12.833Z,10.60
2019-04-04T11:30:16.947Z,10.30
2019-04-04T11:33:20.410Z,9.90
2019-04-04T11:36:23.866Z,9.70
2019-04-04T11:39:27.332Z,9.50
2019-04-04T11:42:30.770Z,9.40
2019-04-04T11:45:34.249Z,9.30
2019-04-04T11:48:37.707Z,9.30
2019-04-04T11:51:41.165Z,9.50
2019-04-04T11:54:58.127Z,9.60
2019-04-04T11:58:01.598Z,9.40
2019-04-04T12:01:09.717Z,9.30
2019-04-04T12:04:13.162Z,9.20
2019-04-04T12:07:16.623Z,9.20
2019-04-04T12:10:20.158Z,9.30
2019-04-04T12:13:23.617Z,9.40
2019-04-04T12:16:27.092Z,9.30
2019-04-04T12:19:30.533Z,9.30
2019-04-04T12:22:33.987Z,9.40
2019-04-04T12:25:37.439Z,9.40
2019-04-04T12:28:40.902Z,9.40
2019-04-04T12:31:44.362Z,9.40
2019-04-04T12:34:47.802Z,9.40
2019-04-04T12:37:51.262Z,9.30
2019-04-04T12:40:54.706Z,9.20
2019-04-04T12:43:58.173Z,9.10
2019-04-04T12:47:01.637Z,9.10
2019-04-04T12:50:07.005Z,9.10
2019-04-04T12:53:10.447Z,9.10
2019-04-04T12:56:13.906Z,9.30
2019-04-04T12:59:17.362Z,9.40
2019-04-04T13:02:20.826Z,9.30
2019-04-04T13:05:24.336Z,9.40
2019-04-04T13:08:30.502Z,9.40
2019-04-04T13:11:32.965Z,9.40
2019-04-04T13:14:36.421Z,9.40
2019-04-04T13:17:39.874Z,9.40
2019-04-04T13:20:44.222Z,9.50
2019-04-04T13:23:47.734Z,9.70
2019-04-04T13:26:51.193Z,9.70
2019-04-04T13:29:55.518Z,9.80
2019-04-04T13:32:58.973Z,9.70
2019-04-04T13:36:02.432Z,9.60
2019-04-04T13:39:09.693Z,9.60
2019-04-04T13:42:13.156Z,9.70
2019-04-04T13:45:16.677Z,9.70
2019-04-04T13:48:20.244Z,9.70
2019-04-04T13:51:25.525Z,9.70
2019-04-04T13:54:28.913Z,9.70
2019-04-04T13:57:32.361Z,9.70
2019-04-04T14:00:35.826Z,9.60
2019-04-04T14:03:39.285Z,9.50
2019-04-04T14:06:42.721Z,9.60
2019-04-04T14:09:46.199Z,9.60
2019-04-04T14:12:49.640Z,9.70
2019-04-04T14:15:53.178Z,9.70
2019-04-04T14:18:56.648Z,9.70
2019-04-04T14:22:00.085Z,9.80
2019-04-04T14:25:04.522Z,9.70
2019-04-04T14:28:07.988Z,9.60
2019-04-04T14:31:11.450Z,9.60
2019-04-04T14:34:14.890Z,9.60
2019-04-04T14:37:18.361Z,9.50
2019-04-04T14:40:21.827Z,9.50
2019-04-04T14:43:25.269Z,9.40
2019-04-04T14:46:28.742Z,9.40
2019-04-04T14:49:32.174Z,9.40
2019-04-04T14:52:35.637Z,9.30
2019-04-04T14:55:39.110Z,9.30
2019-04-04T14:58:42.549Z,9.20
2019-04-04T15:01:46.014Z,9.20
2019-04-04T15:04:49.492Z,9.10
2019-04-04T15:07:52.989Z,9.00
2019-04-04T15:10:56.468Z,9.00
2019-04-04T15:13:59.942Z,8.90
2019-04-04T15:17:03.382Z,8.80
2019-04-04T15:20:26.335Z,8.90
2019-04-04T15:23:29.772Z,8.90
2019-04-04T15:26:33.231Z,8.90
2019-04-04T15:29:36.665Z,8.80
2019-04-04T15:32:40.138Z,8.80
2019-04-04T15:35:43.574Z,8.80
2019-04-04T15:38:47.033Z,8.70
2019-04-04T15:41:50.498Z,8.70
2019-04-04T15:44:53.941Z,8.60
2019-04-04T15:47:57.410Z,8.60
2019-04-04T15:51:00.850Z,8.50
2019-04-04T15:54:04.325Z,8.40
2019-04-04T15:57:07.838Z,8.40
2019-04-04T16:00:11.534Z,8.30
2019-04-04T16:03:14.994Z,8.30
2019-04-04T16:06:18.610Z,8.20
2019-04-04T16:09:22.067Z,8.20
2019-04-04T16:12:25.505Z,8.20
2019-04-04T16:15:28.965Z,8.20
2019-04-04T16:18:32.481Z,8.30
2019-04-04T16:21:35.931Z,8.20
2019-04-04T16:24:39.389Z,8.20
2019-04-04T16:27:42.850Z,8.30
2019-04-04T16:30:46.323Z,8.30
2019-04-04T16:34:10.664Z,8.20
2019-04-04T16:37:14.169Z,8.20
2019-04-04T16:40:18.554Z,8.20
2019-04-04T16:43:21.998Z,8.10
2019-04-04T16:46:25.457Z,8.20
2019-04-04T16:49:28.922Z,8.10
2019-04-04T16:52:32.365Z,8.10
2019-04-04T16:55:36.007Z,8.10
2019-04-04T16:58:39.437Z,8.10
2019-04-04T17:01:42.978Z,8.10
2019-04-04T17:04:46.442Z,8.10
2019-04-04T17:07:49.902Z,8.10
2019-04-04T17:10:53.370Z,8.10
2019-04-04T17:13:56.814Z,8.10
2019-04-04T17:17:00.273Z,8.20
2019-04-04T17:20:05.549Z,8.10
2019-04-04T17:23:09.015Z,8.10
2019-04-04T17:26:12.479Z,8.10
2019-04-04T17:29:15.941Z,8.00
2019-04-04T17:32:19.381Z,8.00
2019-04-04T17:35:23.342Z,7.90
2019-04-04T17:38:27.251Z,7.90
2019-04-04T17:41:31.015Z,7.90
2019-04-04T17:44:34.452Z,8.00
2019-04-04T17:47:37.974Z,8.00
2019-04-04T17:50:41.641Z,8.00
2019-04-04T17:53:45.674Z,8.00
2019-04-04T17:56:49.242Z,8.00
2019-04-04T17:59:52.732Z,8.00
2019-04-04T18:02:56.258Z,7.90
2019-04-04T18:05:59.729Z,7.90
2019-04-04T18:09:05.082Z,7.80
2019-04-04T18:12:08.533Z,7.80
2019-04-04T18:15:12.533Z,7.80
2019-04-04T18:18:15.993Z,7.80
2019-04-04T18:21:19.454Z,7.80
2019-04-04T18:24:22.893Z,7.80
2019-04-04T18:27:26.352Z,7.80
2019-04-04T18:30:29.802Z,7.80
2019-04-04T18:33:33.421Z,7.80
2019-04-04T18:36:36.942Z,7.80
2019-04-04T18:39:40.422Z,7.80
2019-04-04T18:42:53.088Z,7.80
2019-04-04T18:45:49.118Z,7.80
2019-04-04T18:48:52.582Z,7.80
2019-04-04T18:51:56.017Z,7.70
2019-04-04T18:54:59.477Z,7.70
2019-04-04T18:58:02.967Z,7.70
2019-04-04T19:01:06.392Z,7.70
2019-04-04T19:04:09.863Z,7.70
2019-04-04T19:07:13.297Z,7.70
2019-04-04T19:10:18.507Z,7.70
2019-04-04T19:13:21.997Z,7.70
2019-04-04T19:16:25.678Z,7.60
2019-04-04T19:19:29.119Z,7.60
2019-04-04T19:22:32.582Z,7.60
2019-04-04T19:25:36.038Z,7.60
2019-04-04T19:28:39.505Z,7.60
2019-04-04T19:31:42.972Z,7.50
2019-04-04T19:34:46.409Z,7.60
2019-04-04T19:37:59.537Z,7.50
2019-04-04T19:40:55.046Z,7.50
2019-04-04T19:43:58.510Z,7.50
2019-04-04T19:47:01.948Z,7.50
2019-04-04T19:50:08.717Z,7.50
2019-04-04T19:53:12.185Z,7.40
2019-04-04T19:56:15.625Z,7.50
2019-04-04T19:59:19.093Z,7.50
2019-04-04T20:02:22.617Z,7.50
2019-04-04T20:05:26.162Z,7.50
2019-04-04T20:08:29.592Z,7.40
2019-04-04T20:11:33.059Z,7.40
2019-04-04T20:14:36.512Z,7.40
2019-04-04T20:17:39.955Z,7.40
2019-04-04T20:20:43.420Z,7.40
2019-04-04T20:23:46.860Z,7.40
2019-04-04T20:26:50.326Z,7.40
2019-04-04T20:29:53.770Z,7.40
2019-04-04T20:32:57.229Z,7.30
2019-04-04T20:36:00.738Z,7.30
2019-04-04T20:39:06.218Z,7.30
2019-04-04T20:42:09.677Z,7.30
2019-04-04T20:45:13.449Z,7.30
2019-04-04T20:48:16.918Z,7.30
2019-04-04T20:51:20.382Z,7.30
2019-04-04T20:54:23.822Z,7.30
2019-04-04T20:57:27.294Z,7.40
2019-04-04T21:00:30.735Z,7.30
2019-04-04T21:03:34.198Z,7.30
2019-04-04T21:06:52.699Z,7.30
2019-04-04T21:09:56.168Z,7.30
2019-04-04T21:12:59.695Z,7.30
2019-04-04T21:16:03.132Z,7.20
2019-04-04T21:19:06.592Z,7.20
2019-04-04T21:22:10.037Z,7.20
2019-04-04T21:25:13.578Z,7.20
2019-04-04T21:28:17.045Z,7.20
2019-04-04T21:31:20.509Z,7.20
2019-04-04T21:34:23.974Z,7.10
2019-04-04T21:37:27.461Z,7.10
2019-04-04T21:40:30.933Z,7.10
2019-04-04T21:43:34.370Z,7.10
2019-04-04T21:46:37.839Z,7.10
2019-04-04T21:49:41.446Z,7.20
2019-04-04T21:52:44.902Z,7.20
2019-04-04T21:55:48.363Z,7.10
2019-04-04T21:58:51.833Z,7.10
2019-04-04T22:01:55.444Z,7.20
2019-04-04T22:04:58.892Z,7.10
2019-04-04T22:08:02.367Z,7.10
2019-04-04T22:11:05.800Z,7.10
2019-04-04T22:14:21.161Z,7.00
2019-04-04T22:17:14.460Z,6.90
2019-04-04T22:20:17.894Z,6.80
2019-04-04T22:23:21.354Z,6.80
2019-04-04T22:26:24.807Z,6.80
2019-04-04T22:29:28.282Z,6.70
2019-04-04T22:32:31.739Z,6.60
2019-04-04T22:35:35.177Z,6.60
2019-04-04T22:38:38.634Z,6.50
2019-04-04T22:41:42.101Z,6.50
2019-04-04T22:44:45.561Z,6.50
2019-04-04T22:47:49.026Z,6.40
2019-04-04T22:50:52.477Z,6.40
2019-04-04T22:53:55.922Z,6.30
2019-04-04T22:56:59.377Z,6.30
2019-04-04T23:00:03.453Z,6.30
2019-04-04T23:03:07.274Z,6.30
2019-04-04T23:06:10.733Z,6.30
2019-04-04T23:09:14.197Z,6.30
2019-04-04T23:12:17.656Z,6.20
2019-04-04T23:15:21.094Z,6.20
2019-04-04T23:18:24.562Z,6.20
2019-04-04T23:21:28.024Z,6.20
2019-04-04T23:24:31.473Z,6.20
2019-04-04T23:27:34.926Z,6.30
2019-04-04T23:30:38.378Z,6.20
2019-04-04T23:33:41.826Z,6.20
2019-04-04T23:36:45.290Z,6.20
2019-04-04T23:39:48.743Z,6.20
2019-04-04T23:42:52.209Z,6.10
2019-04-04T23:45:55.649Z,6.20
2019-04-04T23:48:59.115Z,6.10
2019-04-04T23:52:02.568Z,6.10
2019-04-04T23:55:06.571Z,6.10
2019-04-04T23:58:10.082Z,6.10
